Unalaska, AK (99685)

5:26 PM AKDT on September 01, 2015 (GMT -0800)
Dutch Harbor | | Change Station
CLOSE
Current Station
Airport
Location: Dutch Harbor,
Elevation: 13 ft
Nearby Weather Stations

Elev 13 ft 53.90 °N, 166.54 °W | Updated 30 minutes ago

Overcast
Overcast
66 °F
Feels Like 66 °F
N
6
Wind Variable Wind from WSW

Today
High -- | Low -- °F
--% Chance of Precip.
Yesterday
High -- | Low -- °F
Precip. -- in
8:15 AM 9:57 PM
Waning Gibbous, 85% visible
Pressure 29.84 in
Visibility 10.0 miles
Clouds Few 3500 ft
Mostly Cloudy 9000 ft
Overcast 11000 ft
Dew Point 57 °F
Humidity 73%
Rainfall 0.21 in
Snow Depth Not available.
UV 2 out of 12
Pollen Not available.
Air Quality Not available.
Flu Activity Not available.
METAR PADU 020056Z 24005KT 10SM FEW035 BKN090 OVC110 19/14 A2982 RMK AO2 WSHFT 2359 SLP103 MH T01890139
Pressure 29.84 in
Visibility 10.0 miles
Clouds Few 3500 ft
Mostly Cloudy 9000 ft
Overcast 11000 ft
Dew Point 57 °F
Humidity 73%
Rainfall 0.21 in
Snow Depth Not available.
UV 2 out of 12
Pollen Not available.
Air Quality Not available.
Flu Activity Not available.
METAR PADU 020056Z 24005KT 10SM FEW035 BKN090 OVC110 19/14 A2982 RMK AO2 WSHFT 2359 SLP103 MH T01890139

10-Day Weather Forecast

×

Almanac

Astronomy

Sep. 01, 2015 Rise Set
Actual Time
Civil Twilight
Nautical Twilight
Astronomical Twilight
Moon
Length of Visible Light
Length of Day
Tomorrow will be .
, % of the Moon is Illuminated

Today's Extremes

State Highs State Lows

Community

WunderPhotos

Upload Photos

1,851,672 photos uploaded!

WunderBlogs® & News

Nearby

Air Quality

  Air Quality AQ Index Pollutant
Not available.

Snow Depth

Station Depth Elevation

Earthquake Activity

City Distance Mag. Time & Date
Minimum magnitude displayed is 2.5.

Coastal Water Temperatures

Place Temperature

Stations

Nearby Weather Stations

Station Location Temp. Windchill Dew Point Humidity Wind Precip. Elev Updated Type